createdAt,value
2018-09-20T00:03:14.139Z,14.30
2018-09-20T00:08:07.853Z,17.35
2018-09-20T00:13:01.061Z,12.70
2018-09-20T00:17:54.625Z,13.95
2018-09-20T00:22:47.903Z,13.62
2018-09-20T00:27:41.455Z,13.25
2018-09-20T00:32:34.720Z,14.40
2018-09-20T00:37:28.000Z,10.30
2018-09-20T00:42:21.234Z,10.58
2018-09-20T00:47:14.481Z,11.22
2018-09-20T00:52:07.739Z,11.97
2018-09-20T00:57:01.265Z,10.03
2018-09-20T01:01:54.487Z,11.43
2018-09-20T01:06:47.709Z,12.75
2018-09-20T01:11:41.751Z,9.88
2018-09-20T01:16:35.389Z,15.83
2018-09-20T01:21:28.683Z,13.13
2018-09-20T01:26:21.901Z,14.47
2018-09-20T01:31:15.159Z,10.85
2018-09-20T01:36:08.409Z,11.05
2018-09-20T01:41:02.487Z,11.57
2018-09-20T01:45:55.729Z,13.95
2018-09-20T01:50:49.001Z,10.28
2018-09-20T01:55:42.244Z,10.03
2018-09-20T02:00:35.515Z,9.85
2018-09-20T02:05:28.755Z,12.88
2018-09-20T02:10:21.996Z,10.32
2018-09-20T02:15:15.243Z,10.72
2018-09-20T02:20:08.512Z,10.10
2018-09-20T02:25:01.748Z,17.73
2018-09-20T02:29:55.101Z,13.30
2018-09-20T02:34:48.310Z,12.43
2018-09-20T02:39:41.540Z,7.42
2018-09-20T02:44:34.797Z,10.40
2018-09-20T02:49:28.365Z,12.75
2018-09-20T02:54:21.628Z,11.22
2018-09-20T02:59:14.898Z,14.75
2018-09-20T03:04:08.229Z,10.37
2018-09-20T03:09:01.489Z,12.00
2018-09-20T03:13:54.753Z,10.15
2018-09-20T03:18:49.049Z,10.93
2018-09-20T03:23:42.297Z,13.53
2018-09-20T03:28:35.533Z,10.20
2018-09-20T03:33:28.796Z,10.28
2018-09-20T03:38:22.055Z,10.93
2018-09-20T03:43:15.271Z,10.25
2018-09-20T03:48:08.561Z,15.98
2018-09-20T03:53:02.413Z,11.08
2018-09-20T03:57:56.193Z,15.08
2018-09-20T04:02:49.488Z,11.95
2018-09-20T04:07:42.763Z,11.85
2018-09-20T04:12:36.023Z,11.57
2018-09-20T04:17:29.235Z,10.45
2018-09-20T04:22:22.511Z,12.53
2018-09-20T04:27:15.747Z,8.65
2018-09-20T04:32:09.060Z,15.28
2018-09-20T04:37:02.437Z,10.50
2018-09-20T04:41:55.685Z,14.68
2018-09-20T04:46:48.961Z,17.40
2018-09-20T04:51:42.222Z,13.68
2018-09-20T04:56:35.479Z,13.68
2018-09-20T05:01:28.743Z,13.10
2018-09-20T05:06:22.558Z,13.55
2018-09-20T05:11:16.822Z,12.35
2018-09-20T05:16:10.137Z,12.20
2018-09-20T05:21:03.444Z,13.25
2018-09-20T05:25:56.721Z,13.28
2018-09-20T05:30:49.929Z,15.23
2018-09-20T05:35:43.203Z,14.80
2018-09-20T05:40:36.483Z,13.10
2018-09-20T05:45:29.712Z,12.98
2018-09-20T05:50:22.947Z,14.75
2018-09-20T05:55:16.242Z,15.20
2018-09-20T06:00:09.951Z,13.50
2018-09-20T06:05:03.415Z,17.70
2018-09-20T06:09:56.640Z,11.97
2018-09-20T06:14:50.053Z,11.95
2018-09-20T06:19:43.342Z,15.95
2018-09-20T06:24:36.583Z,14.10
2018-09-20T06:29:29.825Z,12.65
2018-09-20T06:34:23.061Z,15.95
2018-09-20T06:39:16.315Z,12.73
2018-09-20T06:44:09.565Z,12.60
2018-09-20T06:49:02.915Z,15.35
2018-09-20T06:53:56.196Z,14.55
2018-09-20T06:58:49.454Z,15.80
2018-09-20T07:03:42.734Z,18.15
2018-09-20T07:08:35.993Z,14.80
2018-09-20T07:13:29.242Z,17.07
2018-09-20T07:18:22.497Z,15.35
2018-09-20T07:23:15.778Z,14.63
2018-09-20T07:28:09.665Z,16.37
2018-09-20T07:33:02.901Z,11.93
2018-09-20T07:37:56.161Z,12.55
2018-09-20T07:42:49.996Z,13.18
2018-09-20T07:47:43.322Z,10.95
2018-09-20T07:52:36.556Z,12.20
2018-09-20T07:57:30.375Z,13.88
2018-09-20T08:02:23.732Z,17.90
2018-09-20T08:07:17.108Z,12.45
2018-09-20T08:12:10.357Z,12.65
2018-09-20T08:17:03.775Z,9.50
2018-09-20T08:21:57.013Z,11.03
2018-09-20T08:26:50.431Z,12.75
2018-09-20T08:31:44.290Z,10.65
2018-09-20T08:36:37.597Z,10.88
2018-09-20T08:41:31.016Z,11.12
2018-09-20T08:46:24.289Z,7.87
2018-09-20T08:51:17.545Z,9.60
2018-09-20T08:56:10.842Z,11.73
2018-09-20T09:01:04.593Z,11.00
2018-09-20T09:05:58.379Z,10.35
2018-09-20T09:10:51.691Z,9.03
2018-09-20T09:15:44.940Z,11.70
2018-09-20T09:20:38.202Z,8.08
2018-09-20T09:25:31.528Z,12.18
2018-09-20T09:30:25.121Z,11.18
2018-09-20T09:35:18.392Z,13.55
2018-09-20T09:40:11.633Z,10.48
2018-09-20T09:45:05.115Z,8.90
2018-09-20T09:49:58.351Z,6.20
2018-09-20T09:54:51.732Z,10.82
2018-09-20T09:59:44.960Z,10.72
2018-09-20T10:04:38.203Z,8.98
2018-09-20T10:09:31.489Z,11.05
2018-09-20T10:14:25.231Z,8.40
2018-09-20T10:19:18.504Z,9.18
2018-09-20T10:24:11.718Z,6.20
2018-09-20T10:29:05.106Z,7.95
2018-09-20T10:33:58.448Z,7.75
2018-09-20T10:38:53.159Z,9.23
2018-09-20T10:43:48.187Z,10.88
2018-09-20T10:48:41.416Z,9.98
2018-09-20T10:53:34.746Z,7.20
2018-09-20T10:58:28.065Z,8.00
2018-09-20T11:03:21.392Z,8.48
2018-09-20T11:08:14.597Z,5.72
2018-09-20T11:13:07.848Z,8.58
2018-09-20T11:18:01.093Z,4.80
2018-09-20T11:22:54.433Z,8.65
2018-09-20T11:27:47.715Z,8.38
2018-09-20T11:32:41.004Z,8.90
2018-09-20T11:37:34.266Z,9.25
2018-09-20T11:42:27.576Z,7.83
2018-09-20T11:47:20.838Z,11.57
2018-09-20T11:52:14.039Z,8.98
2018-09-20T11:57:07.318Z,8.63
2018-09-20T12:02:00.700Z,9.00
2018-09-20T12:06:54.062Z,7.45
2018-09-20T12:11:47.316Z,9.00
2018-09-20T12:16:40.655Z,7.22
2018-09-20T12:21:34.055Z,8.80
2018-09-20T12:26:27.353Z,5.80
2018-09-20T12:31:20.733Z,7.10
2018-09-20T12:36:14.031Z,5.00
2018-09-20T12:41:08.380Z,5.12
2018-09-20T12:46:02.405Z,6.97
2018-09-20T12:50:55.669Z,8.68
2018-09-20T12:55:49.202Z,4.65
2018-09-20T13:00:42.816Z,6.65
2018-09-20T13:05:37.033Z,9.55
2018-09-20T13:10:30.999Z,7.30
2018-09-20T13:15:24.274Z,6.22
2018-09-20T13:20:17.605Z,6.97
2018-09-20T13:25:10.873Z,7.40
2018-09-20T13:30:04.212Z,7.17
2018-09-20T13:34:57.453Z,4.60
2018-09-20T13:39:50.749Z,5.05
2018-09-20T13:44:44.148Z,7.10
2018-09-20T13:49:37.455Z,4.85
2018-09-20T13:54:30.753Z,4.58
2018-09-20T13:59:23.982Z,5.15
2018-09-20T14:04:17.221Z,5.72
2018-09-20T14:09:11.715Z,4.92
2018-09-20T14:14:05.137Z,6.53
2018-09-20T14:18:59.135Z,5.10
2018-09-20T14:23:53.217Z,5.75
2018-09-20T14:28:47.100Z,6.97
2018-09-20T14:33:40.319Z,8.35
2018-09-20T14:38:33.567Z,6.03
2018-09-20T14:43:26.874Z,4.85
2018-09-20T14:48:20.117Z,5.20
2018-09-20T14:53:13.728Z,6.20
2018-09-20T14:58:07.980Z,7.22
2018-09-20T15:03:01.224Z,6.33
2018-09-20T15:07:54.440Z,6.37
2018-09-20T15:12:47.703Z,8.53
2018-09-20T15:17:40.972Z,6.78
2018-09-20T15:22:34.314Z,8.48
2018-09-20T15:27:27.564Z,6.05
2018-09-20T15:32:20.898Z,7.17
2018-09-20T15:37:14.667Z,8.08
2018-09-20T15:42:08.058Z,8.05
2018-09-20T15:47:01.439Z,4.53
2018-09-20T15:51:54.964Z,7.08
2018-09-20T15:56:48.396Z,7.55
2018-09-20T16:01:41.665Z,5.58
2018-09-20T16:06:35.109Z,7.70
2018-09-20T16:11:28.747Z,7.58
2018-09-20T16:16:22.106Z,7.33
2018-09-20T16:21:15.391Z,5.15
2018-09-20T16:26:08.693Z,4.85
2018-09-20T16:31:35.985Z,4.25
2018-09-20T16:36:52.177Z,4.50
2018-09-20T16:41:49.939Z,7.75
2018-09-20T16:47:17.093Z,6.20
2018-09-20T16:52:10.461Z,8.80
2018-09-20T16:57:03.754Z,4.45
2018-09-20T17:01:56.963Z,6.70
2018-09-20T17:06:50.786Z,9.63
2018-09-20T17:11:44.374Z,8.73
2018-09-20T17:16:37.674Z,6.40
2018-09-20T17:21:30.900Z,7.28
2018-09-20T17:26:24.172Z,6.72
2018-09-20T17:31:17.467Z,9.33
2018-09-20T17:36:11.209Z,8.18
2018-09-20T17:41:07.782Z,7.17
2018-09-20T17:46:01.117Z,7.87
2018-09-20T17:50:55.428Z,5.67
2018-09-20T17:55:49.660Z,8.55
2018-09-20T18:00:43.015Z,9.73
2018-09-20T18:05:36.364Z,7.37
2018-09-20T18:10:29.708Z,6.28
2018-09-20T18:15:22.988Z,8.90
2018-09-20T18:20:16.279Z,14.10
2018-09-20T18:25:09.555Z,6.90
2018-09-20T18:30:02.853Z,6.37
2018-09-20T18:34:56.084Z,8.68
2018-09-20T18:39:49.433Z,11.97
2018-09-20T18:44:42.760Z,4.67
2018-09-20T18:49:36.005Z,7.60
2018-09-20T18:54:29.291Z,9.50
2018-09-20T18:59:22.573Z,9.35
2018-09-20T19:04:16.505Z,8.88
2018-09-20T19:09:10.227Z,8.88
2018-09-20T19:14:03.501Z,7.55
2018-09-20T19:18:56.793Z,5.22
2018-09-20T19:23:50.061Z,5.62
2018-09-20T19:28:43.324Z,5.85
2018-09-20T19:33:36.560Z,8.30
2018-09-20T19:38:29.950Z,8.63
2018-09-20T19:43:23.249Z,6.62
2018-09-20T19:48:16.789Z,6.25
2018-09-20T19:53:10.113Z,5.92
2018-09-20T19:58:03.347Z,7.42
2018-09-20T20:02:56.691Z,8.53
2018-09-20T20:07:50.986Z,8.73
2018-09-20T20:12:44.229Z,5.30
2018-09-20T20:17:37.479Z,11.35
2018-09-20T20:22:30.819Z,7.85
2018-09-20T20:27:24.183Z,5.85
2018-09-20T20:32:18.371Z,8.20
2018-09-20T20:37:12.207Z,4.90
2018-09-20T20:42:06.985Z,7.40
2018-09-20T20:47:00.897Z,7.30
2018-09-20T20:51:54.162Z,11.08
2018-09-20T20:56:47.506Z,6.42
2018-09-20T21:01:40.834Z,9.13
2018-09-20T21:06:41.749Z,5.58
2018-09-20T21:11:35.461Z,7.72
2018-09-20T21:16:28.738Z,8.95
2018-09-20T21:21:22.032Z,8.90
2018-09-20T21:26:15.326Z,9.03
2018-09-20T21:31:08.619Z,5.70
2018-09-20T21:36:01.872Z,8.40
2018-09-20T21:40:55.141Z,10.82
2018-09-20T21:45:48.717Z,11.55
2018-09-20T21:50:41.957Z,8.55
2018-09-20T21:55:35.235Z,10.72
2018-09-20T22:00:28.553Z,8.75
2018-09-20T22:05:21.803Z,7.00
2018-09-20T22:10:15.023Z,9.78
2018-09-20T22:15:13.739Z,10.70
2018-09-20T22:20:07.142Z,5.00
2018-09-20T22:25:00.413Z,11.00
2018-09-20T22:29:53.710Z,8.23
2018-09-20T22:34:46.943Z,5.75
2018-09-20T22:39:40.210Z,6.95
2018-09-20T22:44:33.441Z,7.17
2018-09-20T22:49:26.692Z,12.58
2018-09-20T22:54:19.927Z,9.55
2018-09-20T22:59:13.218Z,9.53
2018-09-20T23:04:06.577Z,8.90
2018-09-20T23:08:59.805Z,8.15
2018-09-20T23:13:53.053Z,6.45
2018-09-20T23:18:46.295Z,6.97
2018-09-20T23:23:39.529Z,9.48
2018-09-20T23:28:33.377Z,10.55
2018-09-20T23:33:26.669Z,5.58
2018-09-20T23:38:19.911Z,9.08
2018-09-20T23:43:13.221Z,12.70
2018-09-20T23:48:07.261Z,8.83
2018-09-20T23:53:00.571Z,8.68
2018-09-20T23:57:53.833Z,8.18
